sensor_id;sensor_type;location;lat;lon;timestamp;temperature;humidity
617;DHT22;295;51.628;7.520;2022-07-23T09:44:30;31.90;24.90
617;DHT22;295;51.628;7.520;2022-07-23T09:47:19;31.80;21.90
617;DHT22;295;51.628;7.520;2022-07-23T09:50:10;32.10;20.00
617;DHT22;295;51.628;7.520;2022-07-23T09:53:01;32.60;20.90
617;DHT22;295;51.628;7.520;2022-07-23T09:55:51;33.00;19.30
617;DHT22;295;51.628;7.520;2022-07-23T09:58:41;33.00;19.50
617;DHT22;295;51.628;7.520;2022-07-23T10:01:37;33.10;17.60
617;DHT22;295;51.628;7.520;2022-07-23T10:21:49;32.00;21.70
617;DHT22;295;51.628;7.520;2022-07-23T10:24:58;32.60;22.20
617;DHT22;295;51.628;7.520;2022-07-23T10:28:11;32.90;20.60
617;DHT22;295;51.628;7.520;2022-07-23T10:31:06;32.10;17.20
617;DHT22;295;51.628;7.520;2022-07-23T10:34:23;32.30;17.00
617;DHT22;295;51.628;7.520;2022-07-23T10:37:21;32.30;15.60
617;DHT22;295;51.628;7.520;2022-07-23T10:40:14;32.40;15.90
617;DHT22;295;51.628;7.520;2022-07-23T10:43:13;32.40;18.50
617;DHT22;295;51.628;7.520;2022-07-23T10:46:21;32.80;18.20
617;DHT22;295;51.628;7.520;2022-07-23T10:49:26;32.60;16.50
617;DHT22;295;51.628;7.520;2022-07-23T10:52:24;32.70;17.40
617;DHT22;295;51.628;7.520;2022-07-23T10:55:42;32.70;17.10
617;DHT22;295;51.628;7.520;2022-07-23T10:58:56;32.60;17.00
617;DHT22;295;51.628;7.520;2022-07-23T11:01:51;33.30;18.30
617;DHT22;295;51.628;7.520;2022-07-23T11:04:50;33.60;16.90
617;DHT22;295;51.628;7.520;2022-07-23T11:08:14;33.40;15.80
617;DHT22;295;51.628;7.520;2022-07-23T11:11:10;33.70;13.00
617;DHT22;295;51.628;7.520;2022-07-23T11:14:01;33.90;15.90
617;DHT22;295;51.628;7.520;2022-07-23T11:16:55;33.60;18.00
617;DHT22;295;51.628;7.520;2022-07-23T11:23:03;34.80;15.00
617;DHT22;295;51.628;7.520;2022-07-23T11:28:41;32.50;16.80
617;DHT22;295;51.628;7.520;2022-07-23T11:31:31;32.60;19.70
617;DHT22;295;51.628;7.520;2022-07-23T11:34:30;32.60;18.50
617;DHT22;295;51.628;7.520;2022-07-23T11:37:35;33.40;15.70
617;DHT22;295;51.628;7.520;2022-07-23T11:40:25;33.60;13.50
617;DHT22;295;51.628;7.520;2022-07-23T11:49:03;33.90;15.20
617;DHT22;295;51.628;7.520;2022-07-23T11:52:05;33.90;10.50
617;DHT22;295;51.628;7.520;2022-07-23T11:54:56;34.10;12.50
617;DHT22;295;51.628;7.520;2022-07-23T11:57:46;35.10;11.50
617;DHT22;295;51.628;7.520;2022-07-23T12:00:40;35.40;13.20
617;DHT22;295;51.628;7.520;2022-07-23T12:03:29;35.00;14.10
617;DHT22;295;51.628;7.520;2022-07-23T12:06:20;34.90;8.70
617;DHT22;295;51.628;7.520;2022-07-23T12:09:10;35.00;10.70
617;DHT22;295;51.628;7.520;2022-07-23T12:12:01;35.10;11.40
617;DHT22;295;51.628;7.520;2022-07-23T12:14:51;33.50;10.80
617;DHT22;295;51.628;7.520;2022-07-23T12:17:43;33.20;11.10
617;DHT22;295;51.628;7.520;2022-07-23T12:20:40;32.70;12.70
617;DHT22;295;51.628;7.520;2022-07-23T12:23:31;33.30;13.70
617;DHT22;295;51.628;7.520;2022-07-23T12:26:20;34.20;11.80
617;DHT22;295;51.628;7.520;2022-07-23T12:29:08;33.50;12.40
617;DHT22;295;51.628;7.520;2022-07-23T12:31:57;34.30;9.60
617;DHT22;295;51.628;7.520;2022-07-23T12:34:47;34.20;10.10
617;DHT22;295;51.628;7.520;2022-07-23T12:37:38;35.00;12.20
617;DHT22;295;51.628;7.520;2022-07-23T12:40:31;34.40;9.50
617;DHT22;295;51.628;7.520;2022-07-23T12:43:21;34.30;9.00
617;DHT22;295;51.628;7.520;2022-07-23T12:46:12;34.20;10.10
617;DHT22;295;51.628;7.520;2022-07-23T12:49:02;34.10;8.80
617;DHT22;295;51.628;7.520;2022-07-23T12:51:51;34.10;10.10
617;DHT22;295;51.628;7.520;2022-07-23T12:54:41;34.40;9.00
617;DHT22;295;51.628;7.520;2022-07-23T13:03:21;33.40;10.90
617;DHT22;295;51.628;7.520;2022-07-23T13:06:10;32.50;12.50
617;DHT22;295;51.628;7.520;2022-07-23T13:17:33;34.00;11.00
617;DHT22;295;51.628;7.520;2022-07-23T13:20:22;33.80;10.10
617;DHT22;295;51.628;7.520;2022-07-23T13:23:13;33.90;10.20
617;DHT22;295;51.628;7.520;2022-07-23T13:26:03;34.40;8.70
617;DHT22;295;51.628;7.520;2022-07-23T13:28:51;34.20;10.60
617;DHT22;295;51.628;7.520;2022-07-23T13:31:40;34.60;6.70
617;DHT22;295;51.628;7.520;2022-07-23T13:34:31;34.50;8.60
617;DHT22;295;51.628;7.520;2022-07-23T13:43:05;33.70;10.40
617;DHT22;295;51.628;7.520;2022-07-23T13:46:03;33.90;10.80
617;DHT22;295;51.628;7.520;2022-07-23T13:48:55;34.20;11.80
617;DHT22;295;51.628;7.520;2022-07-23T13:51:50;34.30;10.70
617;DHT22;295;51.628;7.520;2022-07-23T13:54:44;34.40;9.60
617;DHT22;295;51.628;7.520;2022-07-23T13:57:36;34.10;11.60
617;DHT22;295;51.628;7.520;2022-07-23T14:00:29;33.30;12.10
617;DHT22;295;51.628;7.520;2022-07-23T14:03:38;32.10;11.90
617;DHT22;295;51.628;7.520;2022-07-23T14:06:32;31.80;13.50
617;DHT22;295;51.628;7.520;2022-07-23T14:09:24;33.00;15.50
